KPNT

Pontiac Municipal Airport

Pontiac, Illinois, USA
METAR KPNT 231435Z AUTO 08005KT 10SM CLR 20/16 A3021 RMK AO2 T02020160
Observed Flight Rules
May-23 @ 14:35 UTC (26 minutes ago) Visual Flight Rules
Wind Visibility Clouds
80° at 5 knots 10 miles
  • Clear skies
Temperatures Readings
Current 20°C / 68°F
Dewpoint 16°C / 61°F
Humidity 78%
Altimeter 30.21" Hg
Pressure 1023 hPa
Elevation 201
METAR KPNT 231435Z AUTO 08005KT 10SM CLR 20/16 A3021 RMK AO2 T02020160
Observed Flight Rules
May-23 @ 14:35 UTC
(26 minutes ago)
VFR
Wind Visibility
80° at 5 knots 10 miles
Clouds
  • Clear skies
Temperature Dewpoint
20°C / 68°F 16°C / 61°F
Humidity Altimeter Pressure
78% 30.21" Hg 1023 hPa